sensor_id;sensor_type;location;lat;lon;timestamp;temperature;humidity
21312;DHT22;18076;52.154;10.570;2023-03-14T00:01:38;12.10;99.90
21312;DHT22;18076;52.154;10.570;2023-03-14T00:04:04;12.00;99.90
21312;DHT22;18076;52.154;10.570;2023-03-14T00:06:31;11.90;99.90
21312;DHT22;18076;52.154;10.570;2023-03-14T00:08:58;11.90;99.90
21312;DHT22;18076;52.154;10.570;2023-03-14T00:11:23;12.10;99.90
21312;DHT22;18076;52.154;10.570;2023-03-14T00:13:49;12.20;99.90
21312;DHT22;18076;52.154;10.570;2023-03-14T00:16:15;12.20;99.90
21312;DHT22;18076;52.154;10.570;2023-03-14T00:18:41;12.40;99.90
21312;DHT22;18076;52.154;10.570;2023-03-14T00:21:07;12.30;99.90
21312;DHT22;18076;52.154;10.570;2023-03-14T00:23:33;12.40;99.90
21312;DHT22;18076;52.154;10.570;2023-03-14T00:26:02;12.40;99.90
21312;DHT22;18076;52.154;10.570;2023-03-14T00:28:31;12.30;99.90
21312;DHT22;18076;52.154;10.570;2023-03-14T00:30:56;12.30;99.90
21312;DHT22;18076;52.154;10.570;2023-03-14T00:33:22;12.30;99.90
21312;DHT22;18076;52.154;10.570;2023-03-14T00:35:55;12.30;99.90
21312;DHT22;18076;52.154;10.570;2023-03-14T00:38:20;12.30;99.90
21312;DHT22;18076;52.154;10.570;2023-03-14T00:40:46;12.30;99.90
21312;DHT22;18076;52.154;10.570;2023-03-14T00:43:12;12.30;99.90
21312;DHT22;18076;52.154;10.570;2023-03-14T00:45:37;12.40;99.90
21312;DHT22;18076;52.154;10.570;2023-03-14T00:48:03;12.40;99.90
21312;DHT22;18076;52.154;10.570;2023-03-14T00:50:28;12.30;99.90
21312;DHT22;18076;52.154;10.570;2023-03-14T00:52:54;12.30;99.90
21312;DHT22;18076;52.154;10.570;2023-03-14T00:55:19;12.30;99.90
21312;DHT22;18076;52.154;10.570;2023-03-14T00:57:45;12.30;99.90
21312;DHT22;18076;52.154;10.570;2023-03-14T01:00:11;12.30;99.90
21312;DHT22;18076;52.154;10.570;2023-03-14T01:02:37;12.30;99.90
21312;DHT22;18076;52.154;10.570;2023-03-14T01:05:03;12.30;99.90
21312;DHT22;18076;52.154;10.570;2023-03-14T01:07:29;12.30;99.90
21312;DHT22;18076;52.154;10.570;2023-03-14T01:09:54;12.30;99.90
21312;DHT22;18076;52.154;10.570;2023-03-14T01:12:20;12.30;99.90
21312;DHT22;18076;52.154;10.570;2023-03-14T01:14:46;12.40;99.90
21312;DHT22;18076;52.154;10.570;2023-03-14T01:17:11;12.30;99.90
21312;DHT22;18076;52.154;10.570;2023-03-14T01:19:37;12.30;99.90
21312;DHT22;18076;52.154;10.570;2023-03-14T01:22:02;12.30;99.90
21312;DHT22;18076;52.154;10.570;2023-03-14T01:24:28;12.20;99.90
21312;DHT22;18076;52.154;10.570;2023-03-14T01:26:54;12.20;99.90
21312;DHT22;18076;52.154;10.570;2023-03-14T01:29:19;12.20;99.90
21312;DHT22;18076;52.154;10.570;2023-03-14T01:31:45;12.10;99.90
21312;DHT22;18076;52.154;10.570;2023-03-14T01:34:11;12.20;99.90
21312;DHT22;18076;52.154;10.570;2023-03-14T01:36:36;12.20;99.90
21312;DHT22;18076;52.154;10.570;2023-03-14T01:39:02;12.20;99.90
21312;DHT22;18076;52.154;10.570;2023-03-14T01:41:28;12.20;99.90
21312;DHT22;18076;52.154;10.570;2023-03-14T01:43:53;12.20;99.90
21312;DHT22;18076;52.154;10.570;2023-03-14T01:49:09;12.20;99.90
21312;DHT22;18076;52.154;10.570;2023-03-14T01:51:38;12.20;99.90
21312;DHT22;18076;52.154;10.570;2023-03-14T01:54:07;12.10;99.90
21312;DHT22;18076;52.154;10.570;2023-03-14T01:56:33;12.10;99.90
21312;DHT22;18076;52.154;10.570;2023-03-14T01:58:59;12.00;99.90
21312;DHT22;18076;52.154;10.570;2023-03-14T02:01:26;12.00;99.90
21312;DHT22;18076;52.154;10.570;2023-03-14T02:03:53;12.00;99.90
21312;DHT22;18076;52.154;10.570;2023-03-14T02:06:19;11.90;99.90
21312;DHT22;18076;52.154;10.570;2023-03-14T02:08:46;11.90;99.90
21312;DHT22;18076;52.154;10.570;2023-03-14T02:11:15;11.90;99.90
21312;DHT22;18076;52.154;10.570;2023-03-14T02:13:40;11.90;99.90
21312;DHT22;18076;52.154;10.570;2023-03-14T02:16:06;11.80;99.90
21312;DHT22;18076;52.154;10.570;2023-03-14T02:18:32;11.80;99.90
21312;DHT22;18076;52.154;10.570;2023-03-14T02:21:05;11.80;99.90
21312;DHT22;18076;52.154;10.570;2023-03-14T02:26:22;11.70;99.90
21312;DHT22;18076;52.154;10.570;2023-03-14T02:28:49;11.70;99.90
21312;DHT22;18076;52.154;10.570;2023-03-14T02:31:15;11.70;99.90
21312;DHT22;18076;52.154;10.570;2023-03-14T02:33:41;11.70;99.90
21312;DHT22;18076;52.154;10.570;2023-03-14T02:36:09;11.60;99.90
21312;DHT22;18076;52.154;10.570;2023-03-14T02:38:57;11.60;99.90
21312;DHT22;18076;52.154;10.570;2023-03-14T02:41:24;11.50;99.90
21312;DHT22;18076;52.154;10.570;2023-03-14T02:43:49;11.50;99.90
21312;DHT22;18076;52.154;10.570;2023-03-14T02:46:19;11.50;99.90
21312;DHT22;18076;52.154;10.570;2023-03-14T02:51:11;11.50;99.90
21312;DHT22;18076;52.154;10.570;2023-03-14T02:53:37;11.50;99.90
21312;DHT22;18076;52.154;10.570;2023-03-14T02:56:03;11.50;99.90
21312;DHT22;18076;52.154;10.570;2023-03-14T02:58:29;11.50;99.90
21312;DHT22;18076;52.154;10.570;2023-03-14T03:00:54;11.50;99.90
21312;DHT22;18076;52.154;10.570;2023-03-14T03:03:20;11.40;99.90
21312;DHT22;18076;52.154;10.570;2023-03-14T03:05:49;11.40;99.90
21312;DHT22;18076;52.154;10.570;2023-03-14T03:08:16;11.40;99.90
21312;DHT22;18076;52.154;10.570;2023-03-14T03:10:41;11.50;99.90
21312;DHT22;18076;52.154;10.570;2023-03-14T03:13:07;11.40;99.90
21312;DHT22;18076;52.154;10.570;2023-03-14T03:15:33;11.50;99.90
21312;DHT22;18076;52.154;10.570;2023-03-14T03:17:59;11.50;99.90
21312;DHT22;18076;52.154;10.570;2023-03-14T03:20:24;11.60;99.90
21312;DHT22;18076;52.154;10.570;2023-03-14T03:22:50;11.50;99.90
21312;DHT22;18076;52.154;10.570;2023-03-14T03:25:16;11.50;99.90
21312;DHT22;18076;52.154;10.570;2023-03-14T03:27:41;11.50;99.90
21312;DHT22;18076;52.154;10.570;2023-03-14T03:30:08;11.50;99.90
21312;DHT22;18076;52.154;10.570;2023-03-14T03:32:34;11.50;99.90
21312;DHT22;18076;52.154;10.570;2023-03-14T03:35:00;11.50;99.90
21312;DHT22;18076;52.154;10.570;2023-03-14T03:37:25;11.60;99.90
21312;DHT22;18076;52.154;10.570;2023-03-14T03:39:51;11.50;99.90
21312;DHT22;18076;52.154;10.570;2023-03-14T03:42:19;11.50;99.90
21312;DHT22;18076;52.154;10.570;2023-03-14T03:44:45;11.50;99.90
21312;DHT22;18076;52.154;10.570;2023-03-14T03:47:10;11.40;99.90
21312;DHT22;18076;52.154;10.570;2023-03-14T03:49:36;11.50;99.90
21312;DHT22;18076;52.154;10.570;2023-03-14T03:52:02;11.40;99.90
21312;DHT22;18076;52.154;10.570;2023-03-14T03:54:27;11.40;99.90
21312;DHT22;18076;52.154;10.570;2023-03-14T03:56:54;11.30;99.90
21312;DHT22;18076;52.154;10.570;2023-03-14T03:59:20;11.30;99.90
21312;DHT22;18076;52.154;10.570;2023-03-14T04:01:45;11.30;99.90
21312;DHT22;18076;52.154;10.570;2023-03-14T04:04:11;11.30;99.90
21312;DHT22;18076;52.154;10.570;2023-03-14T04:06:37;11.30;99.90
21312;DHT22;18076;52.154;10.570;2023-03-14T04:09:02;11.30;99.90
21312;DHT22;18076;52.154;10.570;2023-03-14T04:11:28;11.30;99.90
21312;DHT22;18076;52.154;10.570;2023-03-14T04:13:53;11.20;99.90
21312;DHT22;18076;52.154;10.570;2023-03-14T04:16:20;11.30;99.90
21312;DHT22;18076;52.154;10.570;2023-03-14T04:18:46;11.30;99.90
21312;DHT22;18076;52.154;10.570;2023-03-14T04:21:14;11.40;99.90
21312;DHT22;18076;52.154;10.570;2023-03-14T04:23:40;11.30;99.90
21312;DHT22;18076;52.154;10.570;2023-03-14T04:26:06;11.30;99.90
21312;DHT22;18076;52.154;10.570;2023-03-14T04:28:31;11.20;99.90
21312;DHT22;18076;52.154;10.570;2023-03-14T04:30:57;11.20;99.90
21312;DHT22;18076;52.154;10.570;2023-03-14T04:33:28;11.20;99.90
21312;DHT22;18076;52.154;10.570;2023-03-14T04:35:54;11.20;99.90
21312;DHT22;18076;52.154;10.570;2023-03-14T04:38:20;11.20;99.90
21312;DHT22;18076;52.154;10.570;2023-03-14T04:40:46;11.20;99.90
21312;DHT22;18076;52.154;10.570;2023-03-14T04:43:12;11.10;99.90
21312;DHT22;18076;52.154;10.570;2023-03-14T04:45:40;11.10;99.90
21312;DHT22;18076;52.154;10.570;2023-03-14T04:48:06;11.20;99.90
21312;DHT22;18076;52.154;10.570;2023-03-14T04:50:32;11.10;99.90
21312;DHT22;18076;52.154;10.570;2023-03-14T04:52:57;11.10;99.90
21312;DHT22;18076;52.154;10.570;2023-03-14T04:55:23;11.10;99.90
21312;DHT22;18076;52.154;10.570;2023-03-14T04:57:48;11.00;99.90
21312;DHT22;18076;52.154;10.570;2023-03-14T05:00:16;11.00;99.90
21312;DHT22;18076;52.154;10.570;2023-03-14T05:02:45;11.00;99.90
21312;DHT22;18076;52.154;10.570;2023-03-14T05:05:11;10.90;99.90
21312;DHT22;18076;52.154;10.570;2023-03-14T05:07:36;10.90;99.90
21312;DHT22;18076;52.154;10.570;2023-03-14T05:10:02;10.80;99.90
21312;DHT22;18076;52.154;10.570;2023-03-14T05:12:28;10.80;99.90
21312;DHT22;18076;52.154;10.570;2023-03-14T05:14:56;10.70;99.90
21312;DHT22;18076;52.154;10.570;2023-03-14T05:17:21;10.60;99.90
21312;DHT22;18076;52.154;10.570;2023-03-14T05:19:47;10.60;99.90
21312;DHT22;18076;52.154;10.570;2023-03-14T05:22:13;10.60;99.90
21312;DHT22;18076;52.154;10.570;2023-03-14T05:24:38;10.60;99.90
21312;DHT22;18076;52.154;10.570;2023-03-14T05:27:04;10.60;99.90
21312;DHT22;18076;52.154;10.570;2023-03-14T05:29:30;10.60;99.90
21312;DHT22;18076;52.154;10.570;2023-03-14T05:31:55;10.50;99.90
21312;DHT22;18076;52.154;10.570;2023-03-14T05:34:21;10.40;99.90
21312;DHT22;18076;52.154;10.570;2023-03-14T05:36:46;10.40;99.90
21312;DHT22;18076;52.154;10.570;2023-03-14T05:39:12;10.30;99.90
21312;DHT22;18076;52.154;10.570;2023-03-14T05:41:38;10.30;99.90
21312;DHT22;18076;52.154;10.570;2023-03-14T05:44:03;10.20;99.90
21312;DHT22;18076;52.154;10.570;2023-03-14T05:46:29;10.20;99.90
21312;DHT22;18076;52.154;10.570;2023-03-14T05:49:05;10.10;99.90
21312;DHT22;18076;52.154;10.570;2023-03-14T05:51:36;10.10;99.90
21312;DHT22;18076;52.154;10.570;2023-03-14T05:54:23;10.10;99.90
21312;DHT22;18076;52.154;10.570;2023-03-14T05:56:51;10.00;99.90
21312;DHT22;18076;52.154;10.570;2023-03-14T05:59:20;9.90;99.90
21312;DHT22;18076;52.154;10.570;2023-03-14T06:04:48;9.90;99.90
21312;DHT22;18076;52.154;10.570;2023-03-14T06:07:20;9.90;99.90
21312;DHT22;18076;52.154;10.570;2023-03-14T06:16:29;9.80;99.90
21312;DHT22;18076;52.154;10.570;2023-03-14T06:22:00;9.80;99.90
21312;DHT22;18076;52.154;10.570;2023-03-14T06:24:31;9.80;99.90
21312;DHT22;18076;52.154;10.570;2023-03-14T06:27:02;9.80;99.90
21312;DHT22;18076;52.154;10.570;2023-03-14T06:29:29;9.80;99.90
21312;DHT22;18076;52.154;10.570;2023-03-14T06:31:54;10.00;99.90
21312;DHT22;18076;52.154;10.570;2023-03-14T06:34:20;10.50;99.90
21312;DHT22;18076;52.154;10.570;2023-03-14T06:36:46;10.80;99.90
21312;DHT22;18076;52.154;10.570;2023-03-14T06:39:12;10.80;99.90
21312;DHT22;18076;52.154;10.570;2023-03-14T06:41:37;11.40;99.90
21312;DHT22;18076;52.154;10.570;2023-03-14T06:44:03;12.40;99.90
21312;DHT22;18076;52.154;10.570;2023-03-14T06:46:31;12.80;99.90
21312;DHT22;18076;52.154;10.570;2023-03-14T06:48:57;12.60;99.90
21312;DHT22;18076;52.154;10.570;2023-03-14T06:51:22;12.40;99.90
21312;DHT22;18076;52.154;10.570;2023-03-14T06:53:50;12.90;99.90
21312;DHT22;18076;52.154;10.570;2023-03-14T06:56:16;13.40;99.90
21312;DHT22;18076;52.154;10.570;2023-03-14T06:58:42;13.50;99.90
21312;DHT22;18076;52.154;10.570;2023-03-14T07:01:14;13.10;99.90
21312;DHT22;18076;52.154;10.570;2023-03-14T07:03:48;12.50;99.90
21312;DHT22;18076;52.154;10.570;2023-03-14T07:06:16;12.70;99.90
21312;DHT22;18076;52.154;10.570;2023-03-14T07:08:42;13.20;99.90
21312;DHT22;18076;52.154;10.570;2023-03-14T07:11:07;13.60;99.90
21312;DHT22;18076;52.154;10.570;2023-03-14T07:13:35;14.30;99.90
21312;DHT22;18076;52.154;10.570;2023-03-14T07:16:00;14.10;99.90
21312;DHT22;18076;52.154;10.570;2023-03-14T07:18:26;13.50;99.90
21312;DHT22;18076;52.154;10.570;2023-03-14T07:20:52;13.20;99.90
21312;DHT22;18076;52.154;10.570;2023-03-14T07:23:20;13.40;99.90
21312;DHT22;18076;52.154;10.570;2023-03-14T07:25:46;13.20;99.90
21312;DHT22;18076;52.154;10.570;2023-03-14T07:28:12;13.20;99.90
21312;DHT22;18076;52.154;10.570;2023-03-14T07:30:37;13.90;99.90
21312;DHT22;18076;52.154;10.570;2023-03-14T07:33:03;14.30;99.90
21312;DHT22;18076;52.154;10.570;2023-03-14T07:35:29;14.70;99.90
21312;DHT22;18076;52.154;10.570;2023-03-14T07:37:54;14.80;99.90
21312;DHT22;18076;52.154;10.570;2023-03-14T07:40:20;14.40;99.90
21312;DHT22;18076;52.154;10.570;2023-03-14T07:42:45;13.90;99.90
21312;DHT22;18076;52.154;10.570;2023-03-14T07:45:11;13.30;99.90
21312;DHT22;18076;52.154;10.570;2023-03-14T07:47:37;13.10;99.90
21312;DHT22;18076;52.154;10.570;2023-03-14T07:50:03;13.10;99.90
21312;DHT22;18076;52.154;10.570;2023-03-14T07:52:29;13.10;99.90
21312;DHT22;18076;52.154;10.570;2023-03-14T07:54:55;12.90;99.90
21312;DHT22;18076;52.154;10.570;2023-03-14T07:57:20;12.90;99.90
21312;DHT22;18076;52.154;10.570;2023-03-14T07:59:46;13.00;99.90
21312;DHT22;18076;52.154;10.570;2023-03-14T08:02:12;13.10;99.90
21312;DHT22;18076;52.154;10.570;2023-03-14T08:04:38;13.10;99.90
21312;DHT22;18076;52.154;10.570;2023-03-14T08:07:04;13.50;99.90
21312;DHT22;18076;52.154;10.570;2023-03-14T08:09:29;14.00;99.90
21312;DHT22;18076;52.154;10.570;2023-03-14T08:11:55;14.50;99.90
21312;DHT22;18076;52.154;10.570;2023-03-14T08:17:24;15.10;99.90
21312;DHT22;18076;52.154;10.570;2023-03-14T08:19:50;14.80;99.90
21312;DHT22;18076;52.154;10.570;2023-03-14T08:25:19;14.50;99.90
21312;DHT22;18076;52.154;10.570;2023-03-14T08:33:48;15.10;99.90
21312;DHT22;18076;52.154;10.570;2023-03-14T08:36:24;15.50;99.90
21312;DHT22;18076;52.154;10.570;2023-03-14T08:38:52;15.40;99.90
21312;DHT22;18076;52.154;10.570;2023-03-14T08:41:23;15.10;99.90
21312;DHT22;18076;52.154;10.570;2023-03-14T08:43:49;15.10;99.90
21312;DHT22;18076;52.154;10.570;2023-03-14T08:46:14;15.60;99.90
21312;DHT22;18076;52.154;10.570;2023-03-14T08:48:40;16.00;99.90
21312;DHT22;18076;52.154;10.570;2023-03-14T08:51:10;15.60;99.90
21312;DHT22;18076;52.154;10.570;2023-03-14T08:53:37;15.10;99.90
21312;DHT22;18076;52.154;10.570;2023-03-14T08:56:03;15.50;99.90
21312;DHT22;18076;52.154;10.570;2023-03-14T08:58:31;15.70;99.90
21312;DHT22;18076;52.154;10.570;2023-03-14T09:00:57;16.20;99.90
21312;DHT22;18076;52.154;10.570;2023-03-14T09:03:23;16.10;99.90
21312;DHT22;18076;52.154;10.570;2023-03-14T09:05:49;15.80;99.90
21312;DHT22;18076;52.154;10.570;2023-03-14T09:08:15;15.40;99.90
21312;DHT22;18076;52.154;10.570;2023-03-14T09:10:40;14.60;99.90
21312;DHT22;18076;52.154;10.570;2023-03-14T09:13:08;14.00;99.90
21312;DHT22;18076;52.154;10.570;2023-03-14T09:15:34;13.60;99.90
21312;DHT22;18076;52.154;10.570;2023-03-14T09:23:33;13.30;99.90
21312;DHT22;18076;52.154;10.570;2023-03-14T09:26:10;13.50;99.90
21312;DHT22;18076;52.154;10.570;2023-03-14T09:28:36;13.90;99.90
21312;DHT22;18076;52.154;10.570;2023-03-14T09:31:09;13.80;99.90
21312;DHT22;18076;52.154;10.570;2023-03-14T09:33:35;14.20;99.90
21312;DHT22;18076;52.154;10.570;2023-03-14T09:36:12;14.70;99.90
21312;DHT22;18076;52.154;10.570;2023-03-14T09:38:41;15.20;99.90
21312;DHT22;18076;52.154;10.570;2023-03-14T09:41:14;15.20;99.90
21312;DHT22;18076;52.154;10.570;2023-03-14T09:43:41;14.90;99.90
21312;DHT22;18076;52.154;10.570;2023-03-14T09:46:07;14.60;99.90
21312;DHT22;18076;52.154;10.570;2023-03-14T09:48:37;14.80;99.90
21312;DHT22;18076;52.154;10.570;2023-03-14T09:51:07;14.90;99.90
21312;DHT22;18076;52.154;10.570;2023-03-14T09:53:41;14.80;99.90
21312;DHT22;18076;52.154;10.570;2023-03-14T09:56:18;15.10;99.90
21312;DHT22;18076;52.154;10.570;2023-03-14T09:58:45;15.20;99.90
21312;DHT22;18076;52.154;10.570;2023-03-14T10:01:16;15.00;99.90
21312;DHT22;18076;52.154;10.570;2023-03-14T10:03:44;14.70;99.90
21312;DHT22;18076;52.154;10.570;2023-03-14T10:06:13;14.30;99.90
21312;DHT22;18076;52.154;10.570;2023-03-14T10:08:43;14.00;99.90
21312;DHT22;18076;52.154;10.570;2023-03-14T10:11:16;14.30;99.90
21312;DHT22;18076;52.154;10.570;2023-03-14T10:16:30;14.10;99.90
21312;DHT22;18076;52.154;10.570;2023-03-14T10:19:01;13.80;99.90
21312;DHT22;18076;52.154;10.570;2023-03-14T10:21:29;13.70;99.90
21312;DHT22;18076;52.154;10.570;2023-03-14T10:24:07;13.70;99.90
21312;DHT22;18076;52.154;10.570;2023-03-14T10:26:33;14.10;99.90
21312;DHT22;18076;52.154;10.570;2023-03-14T10:29:03;14.70;99.90
21312;DHT22;18076;52.154;10.570;2023-03-14T10:31:46;15.00;99.90
21312;DHT22;18076;52.154;10.570;2023-03-14T10:34:15;15.10;99.90
21312;DHT22;18076;52.154;10.570;2023-03-14T10:36:41;14.80;99.90
21312;DHT22;18076;52.154;10.570;2023-03-14T10:41:55;14.60;99.90
21312;DHT22;18076;52.154;10.570;2023-03-14T10:44:23;14.30;99.90
21312;DHT22;18076;52.154;10.570;2023-03-14T10:46:57;14.00;99.90
21312;DHT22;18076;52.154;10.570;2023-03-14T10:49:34;14.00;99.90
21312;DHT22;18076;52.154;10.570;2023-03-14T10:54:37;14.40;99.90
21312;DHT22;18076;52.154;10.570;2023-03-14T10:57:03;14.70;99.90
21312;DHT22;18076;52.154;10.570;2023-03-14T10:59:33;14.70;99.90
21312;DHT22;18076;52.154;10.570;2023-03-14T11:05:03;15.10;99.90
21312;DHT22;18076;52.154;10.570;2023-03-14T11:07:39;15.40;99.90
21312;DHT22;18076;52.154;10.570;2023-03-14T11:20:38;14.50;99.90
21312;DHT22;18076;52.154;10.570;2023-03-14T11:23:12;14.20;99.90
21312;DHT22;18076;52.154;10.570;2023-03-14T11:25:44;14.10;99.90
21312;DHT22;18076;52.154;10.570;2023-03-14T11:28:16;14.00;99.90
21312;DHT22;18076;52.154;10.570;2023-03-14T11:30:52;13.80;99.90
21312;DHT22;18076;52.154;10.570;2023-03-14T11:33:30;13.90;99.90
21312;DHT22;18076;52.154;10.570;2023-03-14T11:38:32;14.60;99.90
21312;DHT22;18076;52.154;10.570;2023-03-14T11:40:59;15.00;99.90
21312;DHT22;18076;52.154;10.570;2023-03-14T11:43:29;14.90;99.90
21312;DHT22;18076;52.154;10.570;2023-03-14T11:46:04;14.90;99.90
21312;DHT22;18076;52.154;10.570;2023-03-14T11:48:49;14.60;99.90
21312;DHT22;18076;52.154;10.570;2023-03-14T11:51:23;14.30;99.90
21312;DHT22;18076;52.154;10.570;2023-03-14T11:54:00;14.30;99.90
21312;DHT22;18076;52.154;10.570;2023-03-14T11:56:28;14.10;99.90
21312;DHT22;18076;52.154;10.570;2023-03-14T11:58:56;14.00;99.90
21312;DHT22;18076;52.154;10.570;2023-03-14T12:01:23;13.70;99.90
21312;DHT22;18076;52.154;10.570;2023-03-14T12:03:54;13.70;99.90
21312;DHT22;18076;52.154;10.570;2023-03-14T12:09:07;13.60;99.90
21312;DHT22;18076;52.154;10.570;2023-03-14T12:11:41;13.20;99.90
21312;DHT22;18076;52.154;10.570;2023-03-14T12:14:17;13.10;99.90
21312;DHT22;18076;52.154;10.570;2023-03-14T12:16:45;13.00;99.90
21312;DHT22;18076;52.154;10.570;2023-03-14T12:19:15;13.20;99.90
21312;DHT22;18076;52.154;10.570;2023-03-14T12:21:48;13.30;99.90
21312;DHT22;18076;52.154;10.570;2023-03-14T12:24:17;13.50;99.90
21312;DHT22;18076;52.154;10.570;2023-03-14T12:26:45;13.50;99.90
21312;DHT22;18076;52.154;10.570;2023-03-14T12:29:15;13.50;99.90
21312;DHT22;18076;52.154;10.570;2023-03-14T12:31:45;13.30;99.90
21312;DHT22;18076;52.154;10.570;2023-03-14T12:41:41;9.10;99.90
21312;DHT22;18076;52.154;10.570;2023-03-14T12:46:54;8.40;99.90
21312;DHT22;18076;52.154;10.570;2023-03-14T12:49:19;8.40;99.90
21312;DHT22;18076;52.154;10.570;2023-03-14T12:51:46;8.30;99.90
21312;DHT22;18076;52.154;10.570;2023-03-14T12:54:24;8.20;99.90
21312;DHT22;18076;52.154;10.570;2023-03-14T12:59:30;7.90;99.90
21312;DHT22;18076;52.154;10.570;2023-03-14T13:02:00;7.90;99.90
21312;DHT22;18076;52.154;10.570;2023-03-14T13:04:34;7.80;99.90
21312;DHT22;18076;52.154;10.570;2023-03-14T13:07:01;7.60;99.90
21312;DHT22;18076;52.154;10.570;2023-03-14T13:11:53;7.40;99.90
21312;DHT22;18076;52.154;10.570;2023-03-14T13:14:19;7.30;99.90
21312;DHT22;18076;52.154;10.570;2023-03-14T13:16:45;7.10;99.90
21312;DHT22;18076;52.154;10.570;2023-03-14T13:19:13;6.90;99.90
21312;DHT22;18076;52.154;10.570;2023-03-14T13:21:42;6.60;99.90
21312;DHT22;18076;52.154;10.570;2023-03-14T13:24:21;6.50;99.90
21312;DHT22;18076;52.154;10.570;2023-03-14T13:26:47;6.30;99.90
21312;DHT22;18076;52.154;10.570;2023-03-14T13:29:20;6.10;99.90
21312;DHT22;18076;52.154;10.570;2023-03-14T13:31:47;6.10;99.90
21312;DHT22;18076;52.154;10.570;2023-03-14T13:34:13;6.00;99.90
21312;DHT22;18076;52.154;10.570;2023-03-14T13:36:38;5.90;99.90
21312;DHT22;18076;52.154;10.570;2023-03-14T13:39:06;5.60;99.90
21312;DHT22;18076;52.154;10.570;2023-03-14T13:41:35;5.50;99.90
21312;DHT22;18076;52.154;10.570;2023-03-14T13:44:05;5.30;99.90
21312;DHT22;18076;52.154;10.570;2023-03-14T13:46:31;5.30;99.90
21312;DHT22;18076;52.154;10.570;2023-03-14T13:48:59;5.30;99.90
21312;DHT22;18076;52.154;10.570;2023-03-14T13:51:26;5.30;99.90
21312;DHT22;18076;52.154;10.570;2023-03-14T13:53:57;5.30;99.90
21312;DHT22;18076;52.154;10.570;2023-03-14T13:56:24;5.30;99.90
21312;DHT22;18076;52.154;10.570;2023-03-14T13:58:50;5.30;99.90
21312;DHT22;18076;52.154;10.570;2023-03-14T14:01:16;5.20;99.90
21312;DHT22;18076;52.154;10.570;2023-03-14T14:03:44;5.20;99.90
21312;DHT22;18076;52.154;10.570;2023-03-14T14:06:22;5.10;99.90
21312;DHT22;18076;52.154;10.570;2023-03-14T14:08:48;5.00;99.90
21312;DHT22;18076;52.154;10.570;2023-03-14T14:11:18;4.90;99.90
21312;DHT22;18076;52.154;10.570;2023-03-14T14:13:49;5.00;99.90
21312;DHT22;18076;52.154;10.570;2023-03-14T14:16:15;5.00;99.90
21312;DHT22;18076;52.154;10.570;2023-03-14T14:18:41;5.00;99.90
21312;DHT22;18076;52.154;10.570;2023-03-14T14:21:07;5.00;99.90
21312;DHT22;18076;52.154;10.570;2023-03-14T14:23:35;5.00;99.90
21312;DHT22;18076;52.154;10.570;2023-03-14T14:26:01;5.10;99.90
21312;DHT22;18076;52.154;10.570;2023-03-14T14:28:32;5.10;99.90
21312;DHT22;18076;52.154;10.570;2023-03-14T14:33:28;5.10;99.90
21312;DHT22;18076;52.154;10.570;2023-03-14T14:35:56;5.20;99.90
21312;DHT22;18076;52.154;10.570;2023-03-14T14:38:22;5.10;99.90
21312;DHT22;18076;52.154;10.570;2023-03-14T14:40:49;5.00;99.90
21312;DHT22;18076;52.154;10.570;2023-03-14T14:43:16;5.00;99.90
21312;DHT22;18076;52.154;10.570;2023-03-14T14:45:42;5.00;99.90
21312;DHT22;18076;52.154;10.570;2023-03-14T14:48:11;5.00;99.90
21312;DHT22;18076;52.154;10.570;2023-03-14T14:53:18;5.00;99.90
21312;DHT22;18076;52.154;10.570;2023-03-14T14:55:49;5.00;99.90
21312;DHT22;18076;52.154;10.570;2023-03-14T15:00:49;5.10;99.90
21312;DHT22;18076;52.154;10.570;2023-03-14T15:03:15;5.20;99.90
21312;DHT22;18076;52.154;10.570;2023-03-14T15:05:41;5.30;99.90
21312;DHT22;18076;52.154;10.570;2023-03-14T15:08:10;5.30;99.90
21312;DHT22;18076;52.154;10.570;2023-03-14T15:10:35;5.30;99.90
21312;DHT22;18076;52.154;10.570;2023-03-14T15:13:01;5.30;99.90
21312;DHT22;18076;52.154;10.570;2023-03-14T15:15:26;5.30;99.90
21312;DHT22;18076;52.154;10.570;2023-03-14T15:17:52;5.20;99.90
21312;DHT22;18076;52.154;10.570;2023-03-14T15:20:17;5.20;99.90
21312;DHT22;18076;52.154;10.570;2023-03-14T15:22:44;5.20;99.90
21312;DHT22;18076;52.154;10.570;2023-03-14T15:25:10;5.20;99.90
21312;DHT22;18076;52.154;10.570;2023-03-14T15:27:36;5.20;99.90
21312;DHT22;18076;52.154;10.570;2023-03-14T15:30:05;5.20;99.90
21312;DHT22;18076;52.154;10.570;2023-03-14T15:32:30;5.20;99.90
21312;DHT22;18076;52.154;10.570;2023-03-14T15:34:56;5.20;99.90
21312;DHT22;18076;52.154;10.570;2023-03-14T15:37:22;5.30;99.90
21312;DHT22;18076;52.154;10.570;2023-03-14T15:39:48;5.40;99.90
21312;DHT22;18076;52.154;10.570;2023-03-14T15:42:13;5.50;99.90
21312;DHT22;18076;52.154;10.570;2023-03-14T15:44:39;5.40;99.90
21312;DHT22;18076;52.154;10.570;2023-03-14T15:47:04;5.50;99.90
21312;DHT22;18076;52.154;10.570;2023-03-14T15:49:31;5.50;99.90
21312;DHT22;18076;52.154;10.570;2023-03-14T15:51:56;5.50;99.90
21312;DHT22;18076;52.154;10.570;2023-03-14T15:54:22;5.60;99.90
21312;DHT22;18076;52.154;10.570;2023-03-14T15:56:48;5.50;99.90
21312;DHT22;18076;52.154;10.570;2023-03-14T15:59:13;5.50;99.90
21312;DHT22;18076;52.154;10.570;2023-03-14T16:01:39;5.50;99.90
21312;DHT22;18076;52.154;10.570;2023-03-14T16:04:04;5.50;99.90
21312;DHT22;18076;52.154;10.570;2023-03-14T16:06:30;5.50;99.90
21312;DHT22;18076;52.154;10.570;2023-03-14T16:09:00;5.40;99.90
21312;DHT22;18076;52.154;10.570;2023-03-14T16:11:26;5.50;99.90
21312;DHT22;18076;52.154;10.570;2023-03-14T16:13:51;5.50;99.90
21312;DHT22;18076;52.154;10.570;2023-03-14T16:16:17;5.60;99.90
21312;DHT22;18076;52.154;10.570;2023-03-14T16:18:42;5.50;99.90
21312;DHT22;18076;52.154;10.570;2023-03-14T16:21:12;5.50;99.90
21312;DHT22;18076;52.154;10.570;2023-03-14T16:23:38;5.50;99.90
21312;DHT22;18076;52.154;10.570;2023-03-14T16:26:07;5.50;99.90
21312;DHT22;18076;52.154;10.570;2023-03-14T16:28:33;5.60;99.90
21312;DHT22;18076;52.154;10.570;2023-03-14T16:31:03;5.70;99.90
21312;DHT22;18076;52.154;10.570;2023-03-14T16:33:31;5.70;99.90
21312;DHT22;18076;52.154;10.570;2023-03-14T16:35:58;5.70;99.90
21312;DHT22;18076;52.154;10.570;2023-03-14T16:38:25;5.70;99.90
21312;DHT22;18076;52.154;10.570;2023-03-14T16:40:58;5.70;99.90
21312;DHT22;18076;52.154;10.570;2023-03-14T16:43:25;5.60;99.90
21312;DHT22;18076;52.154;10.570;2023-03-14T16:45:50;5.50;99.90
21312;DHT22;18076;52.154;10.570;2023-03-14T16:48:16;5.40;99.90
21312;DHT22;18076;52.154;10.570;2023-03-14T16:50:42;5.40;99.90